Time;durP1;ratioP1;P1;durP2;ratioP2;P2;SDS_P1;SDS_P2;PMS_P1;PMS_P2;Temp;Humidity;BMP_temperature;BMP_pressure;BME280_temperature;BME280_humidity;BME280_pressure;Samples;Min_cycle;Max_cycle;Signal;HPM_P1;HPM_P2
2022/01/11 00:02:19;;;;;;;;;;;2.20;99.90;;;;;;8390318;28;19979;-70
2022/01/11 00:10:35;;;;;;;;;;;2.20;99.90;;;;;;8413689;28;19943;-69
2022/01/11 00:14:37;;;;;;;;;;;2.20;99.90;;;;;;8417520;28;19931;-70
2022/01/11 00:18:39;;;;;;;;;;;2.20;99.90;;;;;;8403326;28;20073;-69
2022/01/11 00:27:00;;;;;;;;;;;2.10;99.90;;;;;;8425255;28;19994;-69
2022/01/11 00:31:05;;;;;;;;;;;2.10;99.90;;;;;;8417556;28;19951;-69
2022/01/11 00:35:10;;;;;;;;;;;2.10;99.90;;;;;;8412111;28;19928;-69
2022/01/11 00:39:12;;;;;;;;;;;2.10;99.90;;;;;;8420755;28;19963;-69
2022/01/11 00:43:19;;;;;;;;;;;2.10;99.90;;;;;;8417704;28;19935;-69
2022/01/11 00:47:20;;;;;;;;;;;2.10;99.90;;;;;;8419478;28;19932;-69
2022/01/11 00:51:22;;;;;;;;;;;2.10;99.90;;;;;;8420836;28;19928;-70
2022/01/11 00:55:24;;;;;;;;;;;2.00;99.90;;;;;;8416544;28;19967;-69
2022/01/11 00:59:25;;;;;;;;;;;2.00;99.90;;;;;;8423433;28;19975;-69
2022/01/11 01:03:27;;;;;;;;;;;1.90;99.90;;;;;;8405998;28;19979;-69
2022/01/11 01:07:29;;;;;;;;;;;1.90;99.90;;;;;;8417387;28;19972;-69
2022/01/11 01:11:30;;;;;;;;;;;1.90;99.90;;;;;;8399976;28;20304;-69
2022/01/11 01:15:34;;;;;;;;;;;1.90;99.90;;;;;;8404847;28;20332;-69
2022/01/11 01:19:36;;;;;;;;;;;1.90;99.90;;;;;;8415169;28;19928;-69
2022/01/11 01:23:38;;;;;;;;;;;1.90;99.90;;;;;;8419146;28;20422;-70
2022/01/11 01:27:40;;;;;;;;;;;1.90;99.90;;;;;;8420701;28;19924;-69
2022/01/11 01:31:41;;;;;;;;;;;1.90;99.90;;;;;;8414935;28;19935;-69
2022/01/11 01:35:49;;;;;;;;;;;1.90;99.90;;;;;;8417271;28;19924;-69
2022/01/11 01:39:50;;;;;;;;;;;1.80;99.90;;;;;;8415611;28;19992;-69
2022/01/11 01:43:54;;;;;;;;;;;1.80;99.90;;;;;;8416832;28;19987;-69
2022/01/11 01:47:58;;;;;;;;;;;1.80;99.90;;;;;;8401546;28;20028;-69
2022/01/11 01:51:59;;;;;;;;;;;1.80;99.90;;;;;;8415106;28;19954;-69
2022/01/11 01:56:06;;;;;;;;;;;1.80;99.90;;;;;;8407018;28;20374;-69
2022/01/11 02:00:11;;;;;;;;;;;1.70;99.90;;;;;;8412613;28;19924;-69
2022/01/11 02:04:15;;;;;;;;;;;1.70;99.90;;;;;;8391861;28;19968;-69
2022/01/11 02:08:17;;;;;;;;;;;1.80;99.90;;;;;;8412761;28;19928;-69
2022/01/11 02:12:18;;;;;;;;;;;1.80;99.90;;;;;;8416211;28;19971;-69
2022/01/11 02:16:22;;;;;;;;;;;1.80;99.90;;;;;;8398882;28;20011;-69
2022/01/11 02:20:23;;;;;;;;;;;1.80;99.90;;;;;;8408185;28;19924;-69
2022/01/11 02:24:27;;;;;;;;;;;1.80;99.90;;;;;;8418441;28;20431;-69
2022/01/11 02:28:29;;;;;;;;;;;1.80;99.90;;;;;;8418647;28;19924;-69
2022/01/11 02:32:30;;;;;;;;;;;1.80;99.90;;;;;;8409925;28;19956;-69
2022/01/11 02:36:33;;;;;;;;;;;1.80;99.90;;;;;;8403572;28;19982;-69
2022/01/11 02:40:35;;;;;;;;;;;1.80;99.90;;;;;;8412050;28;19955;-69
2022/01/11 02:44:37;;;;;;;;;;;1.70;99.90;;;;;;8410920;28;19939;-69
2022/01/11 02:48:39;;;;;;;;;;;1.60;99.90;;;;;;8418603;28;20414;-69
2022/01/11 02:52:41;;;;;;;;;;;1.60;99.90;;;;;;8414844;28;19924;-69
2022/01/11 02:56:42;;;;;;;;;;;1.60;99.90;;;;;;8417033;28;19924;-69
2022/01/11 03:00:44;;;;;;;;;;;1.60;99.90;;;;;;8409788;28;19970;-69
2022/01/11 03:04:46;;;;;;;;;;;1.50;99.90;;;;;;8417397;28;19933;-69
2022/01/11 03:08:47;;;;;;;;;;;1.50;99.90;;;;;;8417193;28;20026;-69
2022/01/11 03:12:49;;;;;;;;;;;1.50;99.90;;;;;;8411249;28;19924;-69
2022/01/11 03:16:51;;;;;;;;;;;1.50;99.90;;;;;;8396421;28;19931;-69
2022/01/11 03:20:53;;;;;;;;;;;1.50;99.90;;;;;;8420396;28;19932;-69
2022/01/11 03:24:54;;;;;;;;;;;1.50;99.90;;;;;;8411780;28;19932;-69
2022/01/11 03:28:56;;;;;;;;;;;1.50;99.90;;;;;;8413709;28;19944;-69
2022/01/11 03:32:58;;;;;;;;;;;1.50;99.90;;;;;;8394057;28;20308;-69
2022/01/11 03:37:00;;;;;;;;;;;1.50;99.90;;;;;;8411692;28;20336;-69
2022/01/11 03:41:01;;;;;;;;;;;1.50;99.90;;;;;;8418574;28;19939;-69
2022/01/11 03:45:04;;;;;;;;;;;1.50;99.90;;;;;;8406614;28;19976;-69
2022/01/11 03:49:07;;;;;;;;;;;1.50;99.90;;;;;;8410201;28;19979;-69
2022/01/11 03:53:12;;;;;;;;;;;1.40;99.90;;;;;;8413308;28;20379;-69
2022/01/11 03:57:14;;;;;;;;;;;1.50;99.90;;;;;;8412011;28;19925;-69
2022/01/11 04:01:16;;;;;;;;;;;1.40;99.90;;;;;;8411700;28;20291;-69
2022/01/11 04:05:18;;;;;;;;;;;1.40;99.90;;;;;;8407009;28;19924;-69
2022/01/11 04:09:20;;;;;;;;;;;1.50;99.90;;;;;;8417312;28;19924;-69
2022/01/11 04:13:22;;;;;;;;;;;1.50;99.90;;;;;;8416970;28;19928;-70
2022/01/11 04:17:24;;;;;;;;;;;1.40;99.90;;;;;;8411385;28;19931;-69
2022/01/11 04:21:25;;;;;;;;;;;1.50;99.90;;;;;;8414961;28;19967;-69
2022/01/11 04:25:27;;;;;;;;;;;1.50;99.90;;;;;;8409549;28;20004;-69
2022/01/11 04:29:29;;;;;;;;;;;1.50;99.90;;;;;;8401822;28;19924;-69
2022/01/11 04:33:32;;;;;;;;;;;1.50;99.90;;;;;;8413235;28;19924;-69
2022/01/11 04:37:34;;;;;;;;;;;1.50;99.90;;;;;;8411047;28;19979;-69
2022/01/11 04:41:35;;;;;;;;;;;1.50;99.90;;;;;;8418801;28;19928;-69
2022/01/11 04:45:37;;;;;;;;;;;1.50;99.90;;;;;;8400742;28;19959;-69
2022/01/11 04:49:39;;;;;;;;;;;1.50;99.90;;;;;;8424843;28;19925;-69
2022/01/11 04:53:41;;;;;;;;;;;1.40;99.90;;;;;;8420793;28;19931;-69
2022/01/11 04:57:43;;;;;;;;;;;1.40;99.90;;;;;;8414925;28;19995;-69
2022/01/11 05:01:45;;;;;;;;;;;1.40;99.90;;;;;;8403043;28;19925;-69
2022/01/11 05:05:47;;;;;;;;;;;1.50;99.90;;;;;;8400908;28;19924;-69
2022/01/11 05:09:51;;;;;;;;;;;1.50;99.90;;;;;;8390809;28;20009;-69
2022/01/11 05:13:52;;;;;;;;;;;1.60;99.90;;;;;;8414052;28;19970;-69
2022/01/11 05:17:54;;;;;;;;;;;1.50;99.90;;;;;;8412673;28;20351;-69
2022/01/11 05:21:56;;;;;;;;;;;1.50;99.90;;;;;;8418143;28;19990;-69
2022/01/11 05:25:57;;;;;;;;;;;1.50;99.90;;;;;;8418115;28;19979;-69
2022/01/11 05:29:59;;;;;;;;;;;1.50;99.90;;;;;;8417827;28;20340;-69
2022/01/11 05:34:01;;;;;;;;;;;1.50;99.90;;;;;;8410302;28;19931;-69
2022/01/11 05:38:02;;;;;;;;;;;1.50;99.90;;;;;;8415365;28;20384;-69
2022/01/11 05:42:06;;;;;;;;;;;1.40;99.90;;;;;;8401392;28;19924;-69
2022/01/11 05:46:08;;;;;;;;;;;1.40;99.90;;;;;;8403483;28;19931;-69
2022/01/11 05:50:10;;;;;;;;;;;1.50;99.90;;;;;;8418005;28;19930;-69
2022/01/11 05:54:12;;;;;;;;;;;1.50;99.90;;;;;;8417688;28;19924;-69
2022/01/11 05:58:14;;;;;;;;;;;1.50;99.90;;;;;;8401511;28;19924;-69
2022/01/11 06:02:15;;;;;;;;;;;1.40;99.90;;;;;;8405785;28;20315;-69
2022/01/11 06:06:17;;;;;;;;;;;1.40;99.90;;;;;;8415080;28;19925;-69
2022/01/11 06:10:19;;;;;;;;;;;1.40;99.90;;;;;;8413533;28;20042;-69
2022/01/11 06:14:21;;;;;;;;;;;1.40;99.90;;;;;;8405749;28;19959;-70
2022/01/11 06:18:22;;;;;;;;;;;1.40;99.90;;;;;;8415391;28;19931;-69
2022/01/11 06:22:25;;;;;;;;;;;1.40;99.90;;;;;;8402999;28;20014;-69
2022/01/11 06:26:28;;;;;;;;;;;1.40;99.90;;;;;;8405177;28;20280;-69
2022/01/11 06:30:30;;;;;;;;;;;1.30;99.90;;;;;;8413816;28;20285;-69
2022/01/11 06:34:31;;;;;;;;;;;1.30;99.90;;;;;;8416222;28;19983;-69
2022/01/11 06:38:33;;;;;;;;;;;1.30;99.90;;;;;;8417331;28;19928;-69
2022/01/11 06:42:34;;;;;;;;;;;1.20;99.90;;;;;;8415046;28;19924;-69
2022/01/11 06:46:36;;;;;;;;;;;1.20;99.90;;;;;;8415137;28;19982;-69
2022/01/11 06:50:38;;;;;;;;;;;1.20;99.90;;;;;;8417032;28;19924;-69
2022/01/11 06:54:41;;;;;;;;;;;1.20;99.90;;;;;;8420041;28;19932;-69
2022/01/11 06:58:42;;;;;;;;;;;1.20;99.90;;;;;;8398194;28;19990;-69
2022/01/11 07:02:46;;;;;;;;;;;1.20;99.90;;;;;;8407995;28;19954;-70
2022/01/11 07:06:48;;;;;;;;;;;1.20;99.90;;;;;;8406547;28;19924;-69
2022/01/11 07:10:49;;;;;;;;;;;1.20;99.90;;;;;;8397151;28;20297;-70
2022/01/11 07:14:51;;;;;;;;;;;1.10;99.90;;;;;;8406749;28;19941;-70
2022/01/11 07:18:53;;;;;;;;;;;1.20;99.90;;;;;;8418729;28;19972;-69
2022/01/11 07:22:54;;;;;;;;;;;1.10;99.90;;;;;;8417556;28;20007;-69
2022/01/11 07:26:56;;;;;;;;;;;1.10;99.90;;;;;;8425648;28;19967;-69
2022/01/11 07:30:57;;;;;;;;;;;1.10;99.90;;;;;;8425098;28;19924;-70
2022/01/11 07:34:59;;;;;;;;;;;1.10;99.90;;;;;;8401213;28;19976;-69
2022/01/11 07:39:01;;;;;;;;;;;1.10;99.90;;;;;;8413343;28;20375;-70
2022/01/11 07:43:02;;;;;;;;;;;1.10;99.90;;;;;;8400702;28;19971;-70
2022/01/11 07:47:04;;;;;;;;;;;1.10;99.90;;;;;;8398229;28;19935;-69
2022/01/11 07:51:10;;;;;;;;;;;1.20;99.90;;;;;;8382172;28;20692;-69
2022/01/11 07:55:12;;;;;;;;;;;1.20;99.90;;;;;;8400084;28;19928;-69
2022/01/11 07:59:13;;;;;;;;;;;1.10;99.90;;;;;;8398254;28;19928;-69
2022/01/11 08:03:15;;;;;;;;;;;1.20;99.90;;;;;;8398071;28;19928;-70
2022/01/11 08:07:17;;;;;;;;;;;1.20;99.90;;;;;;8401463;28;19947;-69
2022/01/11 08:11:18;;;;;;;;;;;1.20;99.90;;;;;;8395094;28;20321;-69
2022/01/11 08:15:21;;;;;;;;;;;1.20;99.90;;;;;;8394175;28;19924;-69
2022/01/11 08:19:25;;;;;;;;;;;1.20;99.90;;;;;;8387866;28;19947;-70
2022/01/11 08:23:26;;;;;;;;;;;1.20;99.90;;;;;;8373254;28;20408;-69
2022/01/11 08:27:28;;;;;;;;;;;1.30;99.90;;;;;;8390481;28;19998;-70
2022/01/11 08:31:30;;;;;;;;;;;1.30;99.90;;;;;;8378581;28;19979;-70
2022/01/11 08:35:32;;;;;;;;;;;1.30;99.90;;;;;;8406242;28;19971;-69
2022/01/11 08:39:38;;;;;;;;;;;1.30;99.90;;;;;;8399833;28;19935;-70
2022/01/11 08:43:39;;;;;;;;;;;1.30;99.90;;;;;;8403221;28;20332;-69
2022/01/11 08:47:41;;;;;;;;;;;1.30;99.90;;;;;;8406492;28;20328;-69
2022/01/11 08:51:43;;;;;;;;;;;1.30;99.90;;;;;;8400663;28;19932;-68
2022/01/11 08:55:44;;;;;;;;;;;1.30;99.90;;;;;;8401031;28;19928;-69
2022/01/11 08:59:47;;;;;;;;;;;1.30;99.90;;;;;;8401726;28;19970;-70
2022/01/11 09:03:48;;;;;;;;;;;1.40;99.90;;;;;;8400523;28;19933;-69
2022/01/11 09:07:50;;;;;;;;;;;1.40;99.90;;;;;;8392486;28;19967;-69
2022/01/11 09:11:52;;;;;;;;;;;1.40;99.90;;;;;;8397908;28;19956;-69
2022/01/11 09:15:53;;;;;;;;;;;1.40;99.90;;;;;;8380833;28;20071;-69
2022/01/11 09:19:55;;;;;;;;;;;1.40;99.90;;;;;;8399978;28;19928;-69
2022/01/11 09:23:57;;;;;;;;;;;1.40;99.90;;;;;;8396970;28;19952;-69
2022/01/11 09:27:59;;;;;;;;;;;1.40;99.90;;;;;;8402007;28;19928;-69
2022/01/11 09:32:00;;;;;;;;;;;1.50;99.90;;;;;;8405835;28;19960;-69
2022/01/11 09:36:03;;;;;;;;;;;1.50;99.90;;;;;;8405664;28;20267;-69
2022/01/11 09:40:06;;;;;;;;;;;1.60;99.90;;;;;;8400600;28;20404;-69
2022/01/11 09:44:08;;;;;;;;;;;1.60;99.90;;;;;;8400944;28;20325;-69
2022/01/11 09:48:09;;;;;;;;;;;1.70;99.90;;;;;;8401389;28;19967;-69
2022/01/11 09:52:12;;;;;;;;;;;1.70;99.90;;;;;;8383962;28;20426;-69
2022/01/11 09:56:14;;;;;;;;;;;1.80;99.90;;;;;;8385290;28;20384;-70
2022/01/11 10:00:15;;;;;;;;;;;1.80;99.90;;;;;;8393977;28;20399;-69
2022/01/11 10:04:23;;;;;;;;;;;1.90;99.90;;;;;;8399239;28;19924;-70
2022/01/11 10:08:30;;;;;;;;;;;1.90;99.90;;;;;;8404215;28;20351;-69
2022/01/11 10:12:40;;;;;;;;;;;2.00;99.90;;;;;;8396611;28;20489;-69
2022/01/11 10:16:41;;;;;;;;;;;2.10;99.90;;;;;;8380586;28;20352;-70
2022/01/11 10:20:43;;;;;;;;;;;2.20;99.90;;;;;;8401542;28;20015;-69
2022/01/11 10:24:47;;;;;;;;;;;2.40;99.90;;;;;;8398010;28;20071;-69
2022/01/11 10:28:48;;;;;;;;;;;2.80;99.90;;;;;;8395675;28;19943;-70
2022/01/11 10:32:51;;;;;;;;;;;3.00;99.90;;;;;;8397794;28;19928;-69
2022/01/11 10:36:53;;;;;;;;;;;3.10;99.90;;;;;;8401479;28;19990;-69
2022/01/11 10:40:55;;;;;;;;;;;3.20;99.90;;;;;;8402066;28;19947;-70
2022/01/11 10:44:59;;;;;;;;;;;3.30;99.90;;;;;;8389929;28;20452;-70
2022/01/11 10:49:00;;;;;;;;;;;3.40;99.90;;;;;;8404043;28;19924;-69
2022/01/11 10:53:03;;;;;;;;;;;3.40;99.90;;;;;;8397151;28;19938;-69
2022/01/11 10:57:15;;;;;;;;;;;3.50;99.90;;;;;;8385026;28;19932;-69
2022/01/11 11:01:17;;;;;;;;;;;3.60;99.90;;;;;;8398121;28;20014;-69
2022/01/11 11:05:23;;;;;;;;;;;3.60;99.90;;;;;;8396466;28;19932;-70
2022/01/11 11:09:25;;;;;;;;;;;3.70;99.90;;;;;;8395201;28;19924;-70
2022/01/11 11:13:28;;;;;;;;;;;3.70;99.90;;;;;;8400047;28;20324;-70
2022/01/11 11:17:31;;;;;;;;;;;3.80;99.90;;;;;;8396847;28;20026;-69
2022/01/11 11:21:36;;;;;;;;;;;3.80;99.90;;;;;;8400998;28;19939;-69
2022/01/11 11:25:38;;;;;;;;;;;4.00;99.90;;;;;;8386698;28;20019;-69
2022/01/11 11:29:39;;;;;;;;;;;4.30;99.90;;;;;;8386501;28;19968;-69
2022/01/11 11:33:45;;;;;;;;;;;4.60;99.90;;;;;;8386015;28;20023;-69
2022/01/11 11:37:48;;;;;;;;;;;4.60;99.90;;;;;;8386544;28;20023;-70
2022/01/11 11:41:51;;;;;;;;;;;4.50;99.90;;;;;;8370385;28;20402;-70
2022/01/11 11:45:53;;;;;;;;;;;4.50;99.90;;;;;;8385292;28;19972;-69
2022/01/11 11:49:55;;;;;;;;;;;4.50;99.90;;;;;;8386788;28;19928;-70
2022/01/11 11:54:09;;;;;;;;;;;4.50;99.90;;;;;;8407931;28;19925;-70
2022/01/11 11:58:17;;;;;;;;;;;4.50;99.90;;;;;;8395862;28;20019;-70
2022/01/11 12:02:29;;;;;;;;;;;4.50;99.90;;;;;;8398727;28;19947;-70
2022/01/11 12:06:31;;;;;;;;;;;4.60;99.90;;;;;;8420465;28;19925;-70
2022/01/11 12:10:55;;;;;;;;;;;4.70;99.90;;;;;;8406331;28;19958;-69
2022/01/11 12:14:56;;;;;;;;;;;4.70;99.90;;;;;;8405127;28;19968;-70
2022/01/11 12:18:59;;;;;;;;;;;4.80;99.90;;;;;;8384335;28;19924;-70
2022/01/11 12:23:01;;;;;;;;;;;4.80;99.90;;;;;;8392262;28;19932;-70
2022/01/11 12:27:03;;;;;;;;;;;4.90;99.90;;;;;;8404734;28;19970;-70
2022/01/11 12:31:24;;;;;;;;;;;5.20;99.90;;;;;;8389461;28;19934;-70
2022/01/11 12:35:26;;;;;;;;;;;5.50;99.90;;;;;;8405946;28;19959;-70
2022/01/11 12:39:30;;;;;;;;;;;6.10;99.90;;;;;;8400364;28;19970;-70
2022/01/11 12:43:42;;;;;;;;;;;6.80;99.90;;;;;;8402506;28;19962;-69
2022/01/11 12:47:45;;;;;;;;;;;7.40;99.90;;;;;;8399784;28;19924;-70
2022/01/11 12:51:55;;;;;;;;;;;8.20;99.90;;;;;;8393195;28;19925;-70
2022/01/11 12:55:57;;;;;;;;;;;9.00;99.90;;;;;;8392382;28;20926;-70
2022/01/11 13:00:04;;;;;;;;;;;9.90;99.90;;;;;;8398467;28;19924;-70
2022/01/11 13:04:06;;;;;;;;;;;10.30;99.90;;;;;;8398340;28;20399;-70
2022/01/11 13:08:08;;;;;;;;;;;9.90;99.90;;;;;;8400118;28;20506;-70
2022/01/11 13:12:10;;;;;;;;;;;9.30;99.90;;;;;;8392953;28;19929;-70
2022/01/11 13:16:21;;;;;;;;;;;8.80;99.90;;;;;;8384878;28;20324;-70
2022/01/11 13:20:24;;;;;;;;;;;8.60;99.90;;;;;;8396284;28;20624;-70
2022/01/11 13:24:27;;;;;;;;;;;8.40;99.90;;;;;;8400229;28;19931;-70
2022/01/11 13:28:48;;;;;;;;;;;8.20;99.90;;;;;;8400474;28;20015;-71
2022/01/11 13:32:50;;;;;;;;;;;7.80;99.90;;;;;;8384938;28;19924;-70
2022/01/11 13:36:53;;;;;;;;;;;7.30;99.90;;;;;;8398029;28;20369;-70
2022/01/11 13:40:55;;;;;;;;;;;7.10;99.90;;;;;;8397608;28;19982;-70
2022/01/11 13:44:57;;;;;;;;;;;6.90;99.90;;;;;;8388072;28;19958;-71
2022/01/11 13:48:59;;;;;;;;;;;6.80;99.90;;;;;;8388425;28;19947;-70
2022/01/11 13:53:01;;;;;;;;;;;6.80;99.90;;;;;;8342221;28;1721496;-70
2022/01/11 13:57:03;;;;;;;;;;;6.70;99.90;;;;;;8401432;28;19967;-69
2022/01/11 14:01:06;;;;;;;;;;;6.70;99.90;;;;;;8388666;28;20455;-70
2022/01/11 14:05:14;;;;;;;;;;;6.70;99.90;;;;;;8403761;28;19979;-70
2022/01/11 14:09:18;;;;;;;;;;;6.70;99.90;;;;;;8399749;28;19934;-69
2022/01/11 14:13:20;;;;;;;;;;;6.70;99.90;;;;;;8390011;28;20363;-70
2022/01/11 14:17:23;;;;;;;;;;;6.60;99.90;;;;;;8399735;28;19956;-70
2022/01/11 14:21:24;;;;;;;;;;;6.60;99.90;;;;;;8388870;28;19968;-70
2022/01/11 14:25:31;;;;;;;;;;;6.70;99.90;;;;;;8375159;28;20359;-69
2022/01/11 14:29:32;;;;;;;;;;;6.70;99.90;;;;;;8391073;28;19932;-70
2022/01/11 14:33:35;;;;;;;;;;;6.80;99.90;;;;;;8389416;28;19932;-70
2022/01/11 14:37:36;;;;;;;;;;;6.80;99.90;;;;;;8387402;28;20116;-69
2022/01/11 14:41:50;;;;;;;;;;;6.70;99.90;;;;;;8391524;28;20010;-69
2022/01/11 14:45:54;;;;;;;;;;;6.70;99.90;;;;;;8398068;28;19928;-70
2022/01/11 14:50:05;;;;;;;;;;;6.50;99.90;;;;;;8388764;28;20311;-69
2022/01/11 14:54:14;;;;;;;;;;;6.40;99.90;;;;;;8385224;28;20415;-69
2022/01/11 14:58:17;;;;;;;;;;;6.30;99.90;;;;;;8389998;28;20144;-69
2022/01/11 15:02:21;;;;;;;;;;;6.20;99.90;;;;;;8396996;28;19936;-70
2022/01/11 15:06:28;;;;;;;;;;;6.20;99.90;;;;;;8405781;28;19928;-70
2022/01/11 15:10:30;;;;;;;;;;;6.10;99.90;;;;;;8403430;28;19971;-69
2022/01/11 15:14:34;;;;;;;;;;;6.00;99.90;;;;;;8383008;28;19968;-70
2022/01/11 15:18:37;;;;;;;;;;;6.00;99.90;;;;;;8367402;28;25635;-69
2022/01/11 15:22:38;;;;;;;;;;;6.10;99.90;;;;;;8403931;27;19924;-70
2022/01/11 15:26:41;;;;;;;;;;;6.10;99.90;;;;;;8369436;28;20023;-70
2022/01/11 15:30:43;;;;;;;;;;;6.00;99.90;;;;;;8383304;28;22306;-70
2022/01/11 15:34:45;;;;;;;;;;;6.20;99.90;;;;;;8393073;28;19924;-70
2022/01/11 15:38:47;;;;;;;;;;;6.60;99.90;;;;;;8390411;28;20360;-70
2022/01/11 15:42:48;;;;;;;;;;;6.80;99.90;;;;;;8387700;28;19979;-70
2022/01/11 15:46:50;;;;;;;;;;;7.00;99.90;;;;;;8384441;28;20027;-70
2022/01/11 15:50:52;;;;;;;;;;;6.80;99.90;;;;;;8386196;28;20146;-70
2022/01/11 15:54:54;;;;;;;;;;;6.60;99.90;;;;;;8384804;28;20387;-70
2022/01/11 15:58:56;;;;;;;;;;;6.40;99.90;;;;;;8371256;28;19932;-69
2022/01/11 16:02:57;;;;;;;;;;;6.30;99.90;;;;;;8384018;28;20387;-70
2022/01/11 16:06:59;;;;;;;;;;;6.20;99.90;;;;;;8389351;28;19993;-70
2022/01/11 16:11:01;;;;;;;;;;;6.10;99.90;;;;;;8387680;28;19971;-70
2022/01/11 16:15:03;;;;;;;;;;;6.00;99.90;;;;;;8389712;28;19928;-70
2022/01/11 16:19:08;;;;;;;;;;;5.90;99.90;;;;;;8382013;28;19959;-70
2022/01/11 16:23:10;;;;;;;;;;;5.90;99.90;;;;;;8387650;28;20353;-70
2022/01/11 16:27:11;;;;;;;;;;;5.80;99.90;;;;;;8385026;28;20394;-70
2022/01/11 16:31:13;;;;;;;;;;;5.70;99.90;;;;;;8374739;28;19964;-70
2022/01/11 16:35:15;;;;;;;;;;;5.60;99.90;;;;;;8386558;28;19970;-70
2022/01/11 16:39:30;;;;;;;;;;;5.60;99.90;;;;;;8405021;28;19932;-71
2022/01/11 16:43:32;;;;;;;;;;;5.50;99.90;;;;;;8375651;28;20003;-70
2022/01/11 16:47:35;;;;;;;;;;;5.50;99.90;;;;;;8372664;28;20371;-71
2022/01/11 16:51:37;;;;;;;;;;;5.50;99.90;;;;;;8391325;28;20290;-70
2022/01/11 16:55:41;;;;;;;;;;;5.40;99.90;;;;;;8387193;28;19935;-70
2022/01/11 16:59:42;;;;;;;;;;;5.30;99.90;;;;;;8387996;28;20335;-70
2022/01/11 17:03:44;;;;;;;;;;;5.30;99.90;;;;;;8387495;28;20062;-70
2022/01/11 17:07:45;;;;;;;;;;;5.30;99.90;;;;;;8391282;28;19975;-70
2022/01/11 17:11:47;;;;;;;;;;;5.40;99.90;;;;;;8386671;28;19941;-71
2022/01/11 17:15:49;;;;;;;;;;;5.40;99.90;;;;;;8389142;28;19971;-70
2022/01/11 17:19:51;;;;;;;;;;;5.40;99.90;;;;;;8370152;28;20402;-71
2022/01/11 17:23:53;;;;;;;;;;;5.40;99.90;;;;;;8380755;28;19963;-71
2022/01/11 17:27:54;;;;;;;;;;;5.40;99.90;;;;;;8375471;28;19924;-70
2022/01/11 17:31:56;;;;;;;;;;;5.40;99.90;;;;;;8391483;28;19928;-70
2022/01/11 17:35:57;;;;;;;;;;;5.40;99.90;;;;;;8376833;28;19932;-70
2022/01/11 17:39:59;;;;;;;;;;;5.30;99.90;;;;;;8389666;28;20483;-70
2022/01/11 17:44:02;;;;;;;;;;;5.20;99.90;;;;;;8371749;28;19978;-70
2022/01/11 17:48:04;;;;;;;;;;;5.10;99.90;;;;;;8374158;28;19924;-71
2022/01/11 17:52:06;;;;;;;;;;;5.10;99.90;;;;;;8388344;28;19979;-70
2022/01/11 17:56:08;;;;;;;;;;;5.00;99.90;;;;;;8373563;28;19986;-71
2022/01/11 18:00:10;;;;;;;;;;;5.00;99.90;;;;;;8389741;28;19967;-70
2022/01/11 18:04:12;;;;;;;;;;;4.90;99.90;;;;;;8377363;28;19924;-70
2022/01/11 18:08:13;;;;;;;;;;;4.90;99.90;;;;;;8381720;28;19987;-70
2022/01/11 18:12:19;;;;;;;;;;;4.90;99.90;;;;;;8389550;28;19972;-71
2022/01/11 18:16:23;;;;;;;;;;;4.80;99.90;;;;;;8389031;28;19972;-70
2022/01/11 18:20:24;;;;;;;;;;;4.70;99.90;;;;;;8380645;28;19931;-70
2022/01/11 18:24:26;;;;;;;;;;;4.70;99.90;;;;;;8379240;28;19962;-70
2022/01/11 18:28:28;;;;;;;;;;;4.70;99.90;;;;;;8386400;28;19959;-70
2022/01/11 18:32:30;;;;;;;;;;;4.60;99.90;;;;;;8395582;28;19968;-71
2022/01/11 18:36:33;;;;;;;;;;;4.60;99.90;;;;;;8381239;28;19924;-70
2022/01/11 18:40:36;;;;;;;;;;;4.50;99.90;;;;;;8399860;28;19944;-70
2022/01/11 18:44:38;;;;;;;;;;;4.50;99.90;;;;;;8403609;28;19932;-70
2022/01/11 18:48:40;;;;;;;;;;;4.40;99.90;;;;;;8395824;28;19959;-70
2022/01/11 18:52:41;;;;;;;;;;;4.50;99.90;;;;;;8403550;28;19963;-70
2022/01/11 18:56:43;;;;;;;;;;;4.30;99.90;;;;;;8399244;28;20300;-70
2022/01/11 19:00:56;;;;;;;;;;;4.30;99.90;;;;;;8392638;28;19969;-69
2022/01/11 19:04:59;;;;;;;;;;;4.20;99.90;;;;;;8377692;28;19936;-69
2022/01/11 19:09:03;;;;;;;;;;;4.20;99.90;;;;;;8384098;28;19935;-69
2022/01/11 19:13:05;;;;;;;;;;;4.10;99.90;;;;;;8395953;28;19923;-70
2022/01/11 19:17:07;;;;;;;;;;;4.10;99.90;;;;;;8399058;28;19935;-69
2022/01/11 19:21:10;;;;;;;;;;;4.10;99.90;;;;;;8396894;28;20027;-69
2022/01/11 19:25:12;;;;;;;;;;;4.10;99.90;;;;;;8398774;28;19939;-69
2022/01/11 19:29:14;;;;;;;;;;;4.10;99.90;;;;;;8389222;28;20388;-70
2022/01/11 19:33:16;;;;;;;;;;;4.10;99.90;;;;;;8403898;28;19964;-69
2022/01/11 19:37:18;;;;;;;;;;;4.10;99.90;;;;;;8398180;28;19924;-70
2022/01/11 19:41:20;;;;;;;;;;;4.00;99.90;;;;;;8395574;28;20103;-69
2022/01/11 19:45:21;;;;;;;;;;;4.00;99.90;;;;;;8400864;28;19956;-70
2022/01/11 19:49:23;;;;;;;;;;;4.00;99.90;;;;;;8400225;28;20339;-69
2022/01/11 19:53:24;;;;;;;;;;;4.00;99.90;;;;;;8362208;28;19932;-70
2022/01/11 19:57:26;;;;;;;;;;;4.00;99.90;;;;;;8367794;28;19963;-70
2022/01/11 20:01:28;;;;;;;;;;;4.00;99.90;;;;;;8369132;28;19971;-69
2022/01/11 20:05:30;;;;;;;;;;;4.00;99.90;;;;;;8366453;28;20356;-70
2022/01/11 20:09:32;;;;;;;;;;;4.00;99.90;;;;;;8363200;28;21105;-69
2022/01/11 20:13:34;;;;;;;;;;;4.10;99.90;;;;;;8375837;28;19959;-69
2022/01/11 20:17:36;;;;;;;;;;;4.10;99.90;;;;;;8376431;28;20379;-70
2022/01/11 20:30:20;;;;;;;;;;;4.30;99.90;;;;;;8366268;28;20285;-69
2022/01/11 20:34:23;;;;;;;;;;;4.30;99.90;;;;;;8378671;28;19932;-70
2022/01/11 20:38:25;;;;;;;;;;;4.30;99.90;;;;;;8376599;28;19924;-69
2022/01/11 20:42:32;;;;;;;;;;;4.30;99.90;;;;;;8379672;28;19932;-70
2022/01/11 20:46:34;;;;;;;;;;;4.30;99.90;;;;;;8367596;28;20024;-69
2022/01/11 20:50:50;;;;;;;;;;;4.30;99.90;;;;;;8381907;28;19936;-69
2022/01/11 20:54:52;;;;;;;;;;;4.30;99.90;;;;;;8392510;28;19940;-70
2022/01/11 20:58:53;;;;;;;;;;;4.40;99.90;;;;;;8396846;28;19971;-69
2022/01/11 21:02:57;;;;;;;;;;;4.40;99.90;;;;;;8410428;28;19924;-69
2022/01/11 21:06:59;;;;;;;;;;;4.40;99.90;;;;;;8401418;28;19928;-70
2022/01/11 21:11:01;;;;;;;;;;;4.50;99.90;;;;;;8406310;28;19931;-70
2022/01/11 21:15:04;;;;;;;;;;;4.50;99.90;;;;;;8406357;28;20371;-69
2022/01/11 21:23:27;;;;;;;;;;;4.50;99.90;;;;;;8401738;28;20252;-70
2022/01/11 21:27:29;;;;;;;;;;;4.40;99.90;;;;;;8404344;28;19967;-69
2022/01/11 21:31:31;;;;;;;;;;;4.50;99.90;;;;;;8400829;28;19932;-69
2022/01/11 21:35:35;;;;;;;;;;;4.50;99.90;;;;;;8405952;28;19986;-69
2022/01/11 21:39:37;;;;;;;;;;;4.50;99.90;;;;;;8400214;28;19964;-70
2022/01/11 21:43:39;;;;;;;;;;;4.50;99.90;;;;;;8405004;28;19965;-69
2022/01/11 21:47:40;;;;;;;;;;;4.40;99.90;;;;;;8383637;28;19924;-69
2022/01/11 21:51:42;;;;;;;;;;;4.40;99.90;;;;;;8381724;28;19924;-69
2022/01/11 21:55:44;;;;;;;;;;;4.40;99.90;;;;;;8390415;28;19983;-69
2022/01/11 21:59:46;;;;;;;;;;;4.40;99.90;;;;;;8392325;28;20294;-69
2022/01/11 22:03:47;;;;;;;;;;;4.40;99.90;;;;;;8391224;28;19944;-69
2022/01/11 22:07:49;;;;;;;;;;;4.40;99.90;;;;;;8420178;28;19928;-69
2022/01/11 22:11:50;;;;;;;;;;;4.40;99.90;;;;;;8422825;28;19928;-69
2022/01/11 22:20:17;;;;;;;;;;;4.40;99.90;;;;;;8422181;28;19924;-69
2022/01/11 22:24:18;;;;;;;;;;;4.30;99.90;;;;;;8414721;28;19936;-69
2022/01/11 22:28:22;;;;;;;;;;;4.30;99.90;;;;;;8422828;28;20034;-69
2022/01/11 22:32:23;;;;;;;;;;;4.20;99.90;;;;;;8407545;28;19967;-69
2022/01/11 22:36:25;;;;;;;;;;;4.20;99.90;;;;;;8421036;28;19947;-70
2022/01/11 22:40:26;;;;;;;;;;;4.10;99.90;;;;;;8405199;28;19924;-69
2022/01/11 22:44:28;;;;;;;;;;;4.10;99.90;;;;;;8403817;28;19931;-70
2022/01/11 22:48:30;;;;;;;;;;;4.00;99.90;;;;;;8416355;28;19928;-69
2022/01/11 22:52:36;;;;;;;;;;;4.00;99.90;;;;;;8415267;28;19960;-69
2022/01/11 22:56:38;;;;;;;;;;;4.00;99.90;;;;;;8414777;28;20205;-69
2022/01/11 23:00:46;;;;;;;;;;;4.00;99.90;;;;;;8410213;28;19964;-69
2022/01/11 23:04:48;;;;;;;;;;;4.00;99.90;;;;;;8421735;28;19928;-69
2022/01/11 23:08:50;;;;;;;;;;;4.00;99.90;;;;;;8417897;28;19928;-69
2022/01/11 23:13:32;;;;;;;;;;;4.00;99.90;;;;;;8410771;28;19982;-69
2022/01/11 23:17:26;;;;;;;;;;;4.00;99.90;;;;;;8403321;28;19963;-69
2022/01/11 23:21:37;;;;;;;;;;;4.00;99.90;;;;;;8396685;28;19947;-69
2022/01/11 23:25:38;;;;;;;;;;;3.90;99.90;;;;;;8412398;28;19970;-70
2022/01/11 23:29:40;;;;;;;;;;;4.00;99.90;;;;;;8420018;28;20311;-69
2022/01/11 23:33:42;;;;;;;;;;;4.00;99.90;;;;;;8421175;28;19928;-69
2022/01/11 23:38:04;;;;;;;;;;;4.00;99.90;;;;;;8385682;28;19924;-69
2022/01/11 23:46:17;;;;;;;;;;;4.00;99.90;;;;;;8423710;28;19924;-70
2022/01/11 23:50:20;;;;;;;;;;;4.00;99.90;;;;;;8421019;28;19967;-69
2022/01/11 23:54:22;;;;;;;;;;;4.00;99.90;;;;;;8409630;28;19932;-70
2022/01/11 23:58:24;;;;;;;;;;;4.00;99.90;;;;;;8414742;28;19931;-69
